sensor_id;sensor_type;location;lat;lon;timestamp;P1;durP1;ratioP1;P2;durP2;ratioP2
45368;SDS011;51342;55.250;37.668;2023-02-28T00:03:38;8.20;;;4.50;;
45368;SDS011;51342;55.250;37.668;2023-02-28T00:06:10;6.57;;;4.47;;
45368;SDS011;51342;55.250;37.668;2023-02-28T00:08:41;8.30;;;4.97;;
45368;SDS011;51342;55.250;37.668;2023-02-28T00:11:13;10.13;;;5.10;;
45368;SDS011;51342;55.250;37.668;2023-02-28T00:13:46;12.13;;;5.00;;
45368;SDS011;51342;55.250;37.668;2023-02-28T00:16:19;10.93;;;5.20;;
45368;SDS011;51342;55.250;37.668;2023-02-28T00:18:52;10.03;;;5.37;;
45368;SDS011;51342;55.250;37.668;2023-02-28T00:21:23;8.57;;;5.30;;
45368;SDS011;51342;55.250;37.668;2023-02-28T00:23:55;11.97;;;5.13;;
45368;SDS011;51342;55.250;37.668;2023-02-28T00:26:26;9.40;;;4.33;;
45368;SDS011;51342;55.250;37.668;2023-02-28T00:28:57;8.93;;;4.83;;
45368;SDS011;51342;55.250;37.668;2023-02-28T00:31:29;9.07;;;4.47;;
45368;SDS011;51342;55.250;37.668;2023-02-28T00:34:00;7.27;;;4.33;;
45368;SDS011;51342;55.250;37.668;2023-02-28T00:36:32;7.37;;;3.83;;
45368;SDS011;51342;55.250;37.668;2023-02-28T00:39:03;7.03;;;3.93;;
45368;SDS011;51342;55.250;37.668;2023-02-28T00:41:35;6.20;;;3.87;;
45368;SDS011;51342;55.250;37.668;2023-02-28T00:44:06;5.87;;;3.53;;
45368;SDS011;51342;55.250;37.668;2023-02-28T00:46:37;6.33;;;3.37;;
45368;SDS011;51342;55.250;37.668;2023-02-28T00:49:09;6.83;;;3.97;;
45368;SDS011;51342;55.250;37.668;2023-02-28T00:51:40;6.63;;;3.33;;
45368;SDS011;51342;55.250;37.668;2023-02-28T00:54:12;7.70;;;3.90;;
45368;SDS011;51342;55.250;37.668;2023-02-28T00:56:43;7.33;;;3.57;;
45368;SDS011;51342;55.250;37.668;2023-02-28T00:59:17;7.53;;;3.40;;
45368;SDS011;51342;55.250;37.668;2023-02-28T01:01:49;7.10;;;3.47;;
45368;SDS011;51342;55.250;37.668;2023-02-28T01:04:20;5.57;;;3.10;;
45368;SDS011;51342;55.250;37.668;2023-02-28T01:06:52;5.67;;;2.97;;
45368;SDS011;51342;55.250;37.668;2023-02-28T01:09:24;8.27;;;3.37;;
45368;SDS011;51342;55.250;37.668;2023-02-28T01:11:55;6.13;;;3.13;;
45368;SDS011;51342;55.250;37.668;2023-02-28T01:14:26;5.90;;;3.40;;
45368;SDS011;51342;55.250;37.668;2023-02-28T01:16:58;6.37;;;3.27;;
45368;SDS011;51342;55.250;37.668;2023-02-28T01:19:29;7.93;;;3.60;;
45368;SDS011;51342;55.250;37.668;2023-02-28T01:22:02;7.17;;;4.03;;
45368;SDS011;51342;55.250;37.668;2023-02-28T01:24:34;7.37;;;3.70;;
45368;SDS011;51342;55.250;37.668;2023-02-28T01:27:06;8.27;;;3.53;;
45368;SDS011;51342;55.250;37.668;2023-02-28T01:29:37;9.20;;;3.63;;
45368;SDS011;51342;55.250;37.668;2023-02-28T01:32:09;8.83;;;3.67;;
45368;SDS011;51342;55.250;37.668;2023-02-28T01:34:40;7.60;;;3.63;;
45368;SDS011;51342;55.250;37.668;2023-02-28T01:37:11;6.47;;;3.63;;
45368;SDS011;51342;55.250;37.668;2023-02-28T01:39:43;7.47;;;4.13;;
45368;SDS011;51342;55.250;37.668;2023-02-28T01:42:14;7.93;;;4.30;;
45368;SDS011;51342;55.250;37.668;2023-02-28T01:45:00;7.73;;;3.93;;
45368;SDS011;51342;55.250;37.668;2023-02-28T01:47:40;7.87;;;3.60;;
45368;SDS011;51342;55.250;37.668;2023-02-28T01:50:15;8.65;;;3.47;;
45368;SDS011;51342;55.250;37.668;2023-02-28T01:52:49;6.00;;;3.20;;
45368;SDS011;51342;55.250;37.668;2023-02-28T01:55:21;7.07;;;2.97;;
45368;SDS011;51342;55.250;37.668;2023-02-28T01:57:55;8.00;;;3.53;;
45368;SDS011;51342;55.250;37.668;2023-02-28T02:00:30;5.43;;;3.37;;
45368;SDS011;51342;55.250;37.668;2023-02-28T02:03:07;7.17;;;3.77;;
45368;SDS011;51342;55.250;37.668;2023-02-28T02:05:41;6.73;;;3.60;;
45368;SDS011;51342;55.250;37.668;2023-02-28T02:08:19;7.80;;;3.47;;
45368;SDS011;51342;55.250;37.668;2023-02-28T02:10:54;7.93;;;3.20;;
45368;SDS011;51342;55.250;37.668;2023-02-28T02:13:51;7.83;;;4.07;;
45368;SDS011;51342;55.250;37.668;2023-02-28T02:16:59;6.70;;;3.37;;
45368;SDS011;51342;55.250;37.668;2023-02-28T02:20:06;6.57;;;2.93;;
45368;SDS011;51342;55.250;37.668;2023-02-28T02:29:35;7.13;;;3.87;;
45368;SDS011;51342;55.250;37.668;2023-02-28T02:43:53;6.50;;;3.07;;
45368;SDS011;51342;55.250;37.668;2023-02-28T02:46:43;6.83;;;4.17;;
45368;SDS011;51342;55.250;37.668;2023-02-28T02:49:21;6.40;;;3.30;;
45368;SDS011;51342;55.250;37.668;2023-02-28T02:51:57;8.20;;;3.90;;
45368;SDS011;51342;55.250;37.668;2023-02-28T02:54:35;6.73;;;3.83;;
45368;SDS011;51342;55.250;37.668;2023-02-28T02:57:14;6.27;;;3.60;;
45368;SDS011;51342;55.250;37.668;2023-02-28T02:59:52;8.37;;;3.67;;
45368;SDS011;51342;55.250;37.668;2023-02-28T03:02:26;8.17;;;3.53;;
45368;SDS011;51342;55.250;37.668;2023-02-28T03:05:07;7.23;;;3.70;;
45368;SDS011;51342;55.250;37.668;2023-02-28T03:07:45;7.33;;;3.73;;
45368;SDS011;51342;55.250;37.668;2023-02-28T03:10:31;9.63;;;3.70;;
45368;SDS011;51342;55.250;37.668;2023-02-28T03:16:28;7.30;;;3.73;;
45368;SDS011;51342;55.250;37.668;2023-02-28T03:25:07;7.03;;;3.23;;
45368;SDS011;51342;55.250;37.668;2023-02-28T03:33:36;5.73;;;3.20;;
45368;SDS011;51342;55.250;37.668;2023-02-28T03:36:17;4.93;;;2.93;;
45368;SDS011;51342;55.250;37.668;2023-02-28T03:38:55;8.20;;;3.60;;
45368;SDS011;51342;55.250;37.668;2023-02-28T03:41:42;7.57;;;3.17;;
45368;SDS011;51342;55.250;37.668;2023-02-28T03:50:34;6.50;;;3.43;;
45368;SDS011;51342;55.250;37.668;2023-02-28T03:53:15;6.00;;;3.50;;
45368;SDS011;51342;55.250;37.668;2023-02-28T03:55:52;6.37;;;3.60;;
45368;SDS011;51342;55.250;37.668;2023-02-28T03:58:30;6.47;;;3.55;;
45368;SDS011;51342;55.250;37.668;2023-02-28T04:01:21;8.90;;;3.90;;
45368;SDS011;51342;55.250;37.668;2023-02-28T04:03:53;9.00;;;4.17;;
45368;SDS011;51342;55.250;37.668;2023-02-28T04:06:25;6.80;;;3.10;;
45368;SDS011;51342;55.250;37.668;2023-02-28T04:08:58;6.30;;;3.37;;
45368;SDS011;51342;55.250;37.668;2023-02-28T04:14:09;7.93;;;3.97;;
45368;SDS011;51342;55.250;37.668;2023-02-28T04:16:42;9.03;;;3.80;;
45368;SDS011;51342;55.250;37.668;2023-02-28T04:19:13;7.97;;;3.80;;
45368;SDS011;51342;55.250;37.668;2023-02-28T04:21:46;7.17;;;3.33;;
45368;SDS011;51342;55.250;37.668;2023-02-28T04:24:20;7.20;;;3.40;;
45368;SDS011;51342;55.250;37.668;2023-02-28T04:26:55;7.83;;;3.83;;
45368;SDS011;51342;55.250;37.668;2023-02-28T04:29:29;7.37;;;4.00;;
45368;SDS011;51342;55.250;37.668;2023-02-28T04:32:03;8.17;;;3.97;;
45368;SDS011;51342;55.250;37.668;2023-02-28T04:34:35;7.60;;;3.63;;
45368;SDS011;51342;55.250;37.668;2023-02-28T04:37:06;5.93;;;2.93;;
45368;SDS011;51342;55.250;37.668;2023-02-28T04:39:39;7.53;;;3.97;;
45368;SDS011;51342;55.250;37.668;2023-02-28T04:42:10;6.87;;;3.67;;
45368;SDS011;51342;55.250;37.668;2023-02-28T04:44:42;8.23;;;4.17;;
45368;SDS011;51342;55.250;37.668;2023-02-28T04:47:14;6.50;;;3.60;;
45368;SDS011;51342;55.250;37.668;2023-02-28T04:49:45;7.10;;;3.33;;
45368;SDS011;51342;55.250;37.668;2023-02-28T04:52:17;5.73;;;3.07;;
45368;SDS011;51342;55.250;37.668;2023-02-28T04:54:48;6.57;;;3.40;;
45368;SDS011;51342;55.250;37.668;2023-02-28T04:57:20;7.70;;;3.50;;
45368;SDS011;51342;55.250;37.668;2023-02-28T04:59:51;8.03;;;3.90;;
45368;SDS011;51342;55.250;37.668;2023-02-28T05:02:23;6.07;;;2.97;;
45368;SDS011;51342;55.250;37.668;2023-02-28T05:04:54;7.30;;;3.60;;
45368;SDS011;51342;55.250;37.668;2023-02-28T05:07:25;9.67;;;5.30;;
45368;SDS011;51342;55.250;37.668;2023-02-28T05:09:57;6.93;;;3.37;;
45368;SDS011;51342;55.250;37.668;2023-02-28T05:12:28;5.57;;;2.90;;
45368;SDS011;51342;55.250;37.668;2023-02-28T05:14:59;5.73;;;3.17;;
45368;SDS011;51342;55.250;37.668;2023-02-28T05:17:32;5.43;;;2.90;;
45368;SDS011;51342;55.250;37.668;2023-02-28T05:20:04;6.43;;;3.80;;
45368;SDS011;51342;55.250;37.668;2023-02-28T05:22:37;6.60;;;3.73;;
45368;SDS011;51342;55.250;37.668;2023-02-28T05:25:18;5.43;;;3.20;;
45368;SDS011;51342;55.250;37.668;2023-02-28T05:27:53;5.73;;;3.03;;
45368;SDS011;51342;55.250;37.668;2023-02-28T05:30:24;5.00;;;2.80;;
45368;SDS011;51342;55.250;37.668;2023-02-28T05:32:56;8.77;;;3.97;;
45368;SDS011;51342;55.250;37.668;2023-02-28T05:35:27;7.20;;;3.80;;
45368;SDS011;51342;55.250;37.668;2023-02-28T05:37:58;5.73;;;3.27;;
45368;SDS011;51342;55.250;37.668;2023-02-28T05:40:30;7.80;;;3.10;;
45368;SDS011;51342;55.250;37.668;2023-02-28T05:43:01;5.33;;;3.57;;
45368;SDS011;51342;55.250;37.668;2023-02-28T05:45:33;4.87;;;3.23;;
45368;SDS011;51342;55.250;37.668;2023-02-28T05:48:04;6.37;;;3.60;;
45368;SDS011;51342;55.250;37.668;2023-02-28T05:50:36;5.37;;;3.03;;
45368;SDS011;51342;55.250;37.668;2023-02-28T05:53:07;6.37;;;3.03;;
45368;SDS011;51342;55.250;37.668;2023-02-28T05:55:39;5.60;;;3.03;;
45368;SDS011;51342;55.250;37.668;2023-02-28T05:58:12;6.23;;;3.00;;
45368;SDS011;51342;55.250;37.668;2023-02-28T06:00:43;7.13;;;3.27;;
45368;SDS011;51342;55.250;37.668;2023-02-28T06:03:14;6.03;;;3.10;;
45368;SDS011;51342;55.250;37.668;2023-02-28T06:05:46;5.20;;;3.33;;
45368;SDS011;51342;55.250;37.668;2023-02-28T06:08:18;7.33;;;3.63;;
45368;SDS011;51342;55.250;37.668;2023-02-28T06:10:49;6.03;;;3.33;;
45368;SDS011;51342;55.250;37.668;2023-02-28T06:13:21;5.87;;;2.60;;
45368;SDS011;51342;55.250;37.668;2023-02-28T06:15:52;4.63;;;2.70;;
45368;SDS011;51342;55.250;37.668;2023-02-28T06:18:23;6.13;;;2.80;;
45368;SDS011;51342;55.250;37.668;2023-02-28T06:20:55;5.77;;;3.03;;
45368;SDS011;51342;55.250;37.668;2023-02-28T06:23:27;6.30;;;3.23;;
45368;SDS011;51342;55.250;37.668;2023-02-28T06:25:58;6.63;;;3.43;;
45368;SDS011;51342;55.250;37.668;2023-02-28T06:28:30;5.67;;;2.70;;
45368;SDS011;51342;55.250;37.668;2023-02-28T06:31:08;6.77;;;3.53;;
45368;SDS011;51342;55.250;37.668;2023-02-28T06:33:41;5.57;;;3.40;;
45368;SDS011;51342;55.250;37.668;2023-02-28T06:36:14;5.77;;;3.27;;
45368;SDS011;51342;55.250;37.668;2023-02-28T06:38:47;6.53;;;3.43;;
45368;SDS011;51342;55.250;37.668;2023-02-28T06:41:25;6.47;;;3.20;;
45368;SDS011;51342;55.250;37.668;2023-02-28T06:43:57;6.07;;;3.40;;
45368;SDS011;51342;55.250;37.668;2023-02-28T06:46:28;7.17;;;3.47;;
45368;SDS011;51342;55.250;37.668;2023-02-28T06:49:00;6.40;;;3.40;;
45368;SDS011;51342;55.250;37.668;2023-02-28T06:51:31;6.60;;;3.47;;
45368;SDS011;51342;55.250;37.668;2023-02-28T06:54:03;5.87;;;3.60;;
45368;SDS011;51342;55.250;37.668;2023-02-28T06:56:35;7.80;;;3.53;;
45368;SDS011;51342;55.250;37.668;2023-02-28T06:59:06;7.17;;;3.60;;
45368;SDS011;51342;55.250;37.668;2023-02-28T07:01:38;6.53;;;3.77;;
45368;SDS011;51342;55.250;37.668;2023-02-28T07:04:10;6.90;;;3.83;;
45368;SDS011;51342;55.250;37.668;2023-02-28T07:06:42;7.70;;;3.83;;
45368;SDS011;51342;55.250;37.668;2023-02-28T07:09:13;6.20;;;3.60;;
45368;SDS011;51342;55.250;37.668;2023-02-28T07:11:45;5.50;;;3.40;;
45368;SDS011;51342;55.250;37.668;2023-02-28T07:14:16;6.63;;;4.00;;
45368;SDS011;51342;55.250;37.668;2023-02-28T07:16:47;7.23;;;3.67;;
45368;SDS011;51342;55.250;37.668;2023-02-28T07:19:19;7.90;;;3.90;;
45368;SDS011;51342;55.250;37.668;2023-02-28T07:21:51;7.97;;;4.20;;
45368;SDS011;51342;55.250;37.668;2023-02-28T07:24:22;7.03;;;3.87;;
45368;SDS011;51342;55.250;37.668;2023-02-28T07:26:56;8.33;;;3.90;;
45368;SDS011;51342;55.250;37.668;2023-02-28T07:29:28;6.90;;;4.37;;
45368;SDS011;51342;55.250;37.668;2023-02-28T07:31:59;7.97;;;4.43;;
45368;SDS011;51342;55.250;37.668;2023-02-28T07:34:30;7.13;;;4.10;;
45368;SDS011;51342;55.250;37.668;2023-02-28T07:37:02;6.40;;;4.13;;
45368;SDS011;51342;55.250;37.668;2023-02-28T07:39:34;7.57;;;4.37;;
45368;SDS011;51342;55.250;37.668;2023-02-28T07:42:06;7.67;;;4.20;;
45368;SDS011;51342;55.250;37.668;2023-02-28T07:44:41;7.40;;;3.93;;
45368;SDS011;51342;55.250;37.668;2023-02-28T07:47:13;6.53;;;3.57;;
45368;SDS011;51342;55.250;37.668;2023-02-28T07:49:44;6.70;;;4.27;;
45368;SDS011;51342;55.250;37.668;2023-02-28T07:52:16;6.90;;;4.07;;
45368;SDS011;51342;55.250;37.668;2023-02-28T07:54:47;7.80;;;4.13;;
45368;SDS011;51342;55.250;37.668;2023-02-28T07:57:19;6.70;;;4.07;;
45368;SDS011;51342;55.250;37.668;2023-02-28T07:59:50;7.17;;;3.93;;
45368;SDS011;51342;55.250;37.668;2023-02-28T08:02:21;6.33;;;3.80;;
45368;SDS011;51342;55.250;37.668;2023-02-28T08:04:53;6.60;;;4.63;;
45368;SDS011;51342;55.250;37.668;2023-02-28T08:07:25;7.10;;;3.87;;
45368;SDS011;51342;55.250;37.668;2023-02-28T08:09:56;7.57;;;3.50;;
45368;SDS011;51342;55.250;37.668;2023-02-28T08:12:27;6.07;;;3.27;;
45368;SDS011;51342;55.250;37.668;2023-02-28T08:14:59;7.57;;;3.33;;
45368;SDS011;51342;55.250;37.668;2023-02-28T08:17:30;6.30;;;3.10;;
45368;SDS011;51342;55.250;37.668;2023-02-28T08:20:02;8.60;;;3.57;;
45368;SDS011;51342;55.250;37.668;2023-02-28T08:22:34;7.03;;;3.50;;
45368;SDS011;51342;55.250;37.668;2023-02-28T08:25:06;6.53;;;3.93;;
45368;SDS011;51342;55.250;37.668;2023-02-28T08:27:38;6.83;;;3.17;;
45368;SDS011;51342;55.250;37.668;2023-02-28T08:30:13;4.63;;;2.73;;
45368;SDS011;51342;55.250;37.668;2023-02-28T08:32:45;5.20;;;3.13;;
45368;SDS011;51342;55.250;37.668;2023-02-28T08:35:16;4.43;;;2.77;;
45368;SDS011;51342;55.250;37.668;2023-02-28T08:37:48;4.90;;;3.10;;
45368;SDS011;51342;55.250;37.668;2023-02-28T08:40:20;5.10;;;2.87;;
45368;SDS011;51342;55.250;37.668;2023-02-28T08:42:51;6.37;;;2.90;;
45368;SDS011;51342;55.250;37.668;2023-02-28T08:45:22;7.37;;;3.23;;
45368;SDS011;51342;55.250;37.668;2023-02-28T08:47:54;5.57;;;3.03;;
45368;SDS011;51342;55.250;37.668;2023-02-28T08:50:26;4.77;;;3.07;;
45368;SDS011;51342;55.250;37.668;2023-02-28T08:52:57;4.37;;;2.63;;
45368;SDS011;51342;55.250;37.668;2023-02-28T08:55:29;5.70;;;3.03;;
45368;SDS011;51342;55.250;37.668;2023-02-28T08:58:00;4.93;;;2.60;;
45368;SDS011;51342;55.250;37.668;2023-02-28T09:00:32;4.93;;;2.90;;
45368;SDS011;51342;55.250;37.668;2023-02-28T09:03:03;5.47;;;2.90;;
45368;SDS011;51342;55.250;37.668;2023-02-28T09:05:35;5.50;;;2.77;;
45368;SDS011;51342;55.250;37.668;2023-02-28T09:08:06;5.50;;;2.67;;
45368;SDS011;51342;55.250;37.668;2023-02-28T09:10:37;6.43;;;3.30;;
45368;SDS011;51342;55.250;37.668;2023-02-28T09:13:09;5.20;;;2.63;;
45368;SDS011;51342;55.250;37.668;2023-02-28T09:15:40;8.00;;;3.13;;
45368;SDS011;51342;55.250;37.668;2023-02-28T09:18:12;4.37;;;2.67;;
45368;SDS011;51342;55.250;37.668;2023-02-28T09:20:43;4.97;;;2.93;;
45368;SDS011;51342;55.250;37.668;2023-02-28T09:23:15;4.50;;;2.83;;
45368;SDS011;51342;55.250;37.668;2023-02-28T09:25:48;4.20;;;2.57;;
45368;SDS011;51342;55.250;37.668;2023-02-28T09:28:21;5.10;;;2.70;;
45368;SDS011;51342;55.250;37.668;2023-02-28T09:30:53;4.60;;;2.40;;
45368;SDS011;51342;55.250;37.668;2023-02-28T09:33:25;3.83;;;2.40;;
45368;SDS011;51342;55.250;37.668;2023-02-28T09:36:00;4.57;;;2.57;;
45368;SDS011;51342;55.250;37.668;2023-02-28T09:38:34;3.55;;;2.22;;
45368;SDS011;51342;55.250;37.668;2023-02-28T09:41:17;4.80;;;2.77;;
45368;SDS011;51342;55.250;37.668;2023-02-28T09:43:55;4.50;;;2.87;;
45368;SDS011;51342;55.250;37.668;2023-02-28T09:49:14;4.97;;;2.67;;
45368;SDS011;51342;55.250;37.668;2023-02-28T09:51:59;4.63;;;2.60;;
45368;SDS011;51342;55.250;37.668;2023-02-28T09:54:35;5.40;;;2.77;;
45368;SDS011;51342;55.250;37.668;2023-02-28T09:57:08;5.20;;;2.60;;
45368;SDS011;51342;55.250;37.668;2023-02-28T10:05:38;6.50;;;2.83;;
45368;SDS011;51342;55.250;37.668;2023-02-28T10:11:06;4.60;;;2.67;;
45368;SDS011;51342;55.250;37.668;2023-02-28T10:16:35;5.17;;;2.60;;
45368;SDS011;51342;55.250;37.668;2023-02-28T10:19:33;6.40;;;3.40;;
45368;SDS011;51342;55.250;37.668;2023-02-28T10:24:45;5.10;;;2.97;;
45368;SDS011;51342;55.250;37.668;2023-02-28T10:27:19;5.40;;;3.10;;
45368;SDS011;51342;55.250;37.668;2023-02-28T10:29:54;4.97;;;2.73;;
45368;SDS011;51342;55.250;37.668;2023-02-28T10:32:32;5.43;;;2.73;;
45368;SDS011;51342;55.250;37.668;2023-02-28T10:37:42;5.93;;;3.63;;
45368;SDS011;51342;55.250;37.668;2023-02-28T10:43:04;4.13;;;2.60;;
45368;SDS011;51342;55.250;37.668;2023-02-28T10:46:16;6.47;;;3.08;;
45368;SDS011;51342;55.250;37.668;2023-02-28T10:51:39;6.70;;;2.50;;
45368;SDS011;51342;55.250;37.668;2023-02-28T10:54:15;4.13;;;2.53;;
45368;SDS011;51342;55.250;37.668;2023-02-28T10:59:51;5.53;;;2.70;;
45368;SDS011;51342;55.250;37.668;2023-02-28T11:02:31;6.07;;;3.03;;
45368;SDS011;51342;55.250;37.668;2023-02-28T11:05:37;5.10;;;3.17;;
45368;SDS011;51342;55.250;37.668;2023-02-28T11:08:15;5.20;;;2.97;;
45368;SDS011;51342;55.250;37.668;2023-02-28T11:10:48;5.17;;;2.63;;
45368;SDS011;51342;55.250;37.668;2023-02-28T11:13:28;4.93;;;3.00;;
45368;SDS011;51342;55.250;37.668;2023-02-28T11:16:05;5.07;;;3.00;;
45368;SDS011;51342;55.250;37.668;2023-02-28T11:18:42;7.27;;;3.30;;
45368;SDS011;51342;55.250;37.668;2023-02-28T11:21:20;4.80;;;2.65;;
45368;SDS011;51342;55.250;37.668;2023-02-28T11:24:02;4.68;;;2.92;;
45368;SDS011;51342;55.250;37.668;2023-02-28T11:26:44;5.80;;;3.40;;
45368;SDS011;51342;55.250;37.668;2023-02-28T11:29:20;6.33;;;3.10;;
45368;SDS011;51342;55.250;37.668;2023-02-28T11:35:17;6.63;;;3.70;;
45368;SDS011;51342;55.250;37.668;2023-02-28T11:38:00;5.97;;;3.53;;
45368;SDS011;51342;55.250;37.668;2023-02-28T11:40:39;5.70;;;3.03;;
45368;SDS011;51342;55.250;37.668;2023-02-28T11:43:30;5.93;;;3.60;;
45368;SDS011;51342;55.250;37.668;2023-02-28T11:46:29;6.10;;;3.60;;
45368;SDS011;51342;55.250;37.668;2023-02-28T11:55:30;6.57;;;3.27;;
45368;SDS011;51342;55.250;37.668;2023-02-28T12:09:11;6.20;;;3.07;;
45368;SDS011;51342;55.250;37.668;2023-02-28T12:11:54;6.63;;;3.50;;
45368;SDS011;51342;55.250;37.668;2023-02-28T12:17:43;5.83;;;3.43;;
45368;SDS011;51342;55.250;37.668;2023-02-28T12:23:33;7.47;;;3.37;;
45368;SDS011;51342;55.250;37.668;2023-02-28T12:29:04;6.07;;;3.00;;
45368;SDS011;51342;55.250;37.668;2023-02-28T12:32:06;5.77;;;2.70;;
45368;SDS011;51342;55.250;37.668;2023-02-28T12:34:49;5.27;;;2.60;;
45368;SDS011;51342;55.250;37.668;2023-02-28T12:37:28;4.97;;;3.10;;
45368;SDS011;51342;55.250;37.668;2023-02-28T12:40:19;5.93;;;3.67;;
45368;SDS011;51342;55.250;37.668;2023-02-28T12:42:53;5.83;;;3.00;;
45368;SDS011;51342;55.250;37.668;2023-02-28T12:46:03;6.97;;;3.40;;
45368;SDS011;51342;55.250;37.668;2023-02-28T12:48:36;5.53;;;3.00;;
45368;SDS011;51342;55.250;37.668;2023-02-28T12:51:11;5.53;;;2.93;;
45368;SDS011;51342;55.250;37.668;2023-02-28T12:56:33;5.63;;;3.20;;
45368;SDS011;51342;55.250;37.668;2023-02-28T13:08:23;5.33;;;2.90;;
45368;SDS011;51342;55.250;37.668;2023-02-28T13:11:01;6.22;;;3.55;;
45368;SDS011;51342;55.250;37.668;2023-02-28T13:13:35;5.50;;;3.10;;
45368;SDS011;51342;55.250;37.668;2023-02-28T13:18:42;5.93;;;3.03;;
45368;SDS011;51342;55.250;37.668;2023-02-28T13:21:28;6.43;;;3.13;;
45368;SDS011;51342;55.250;37.668;2023-02-28T13:24:02;6.93;;;3.60;;
45368;SDS011;51342;55.250;37.668;2023-02-28T13:34:38;6.13;;;3.10;;
45368;SDS011;51342;55.250;37.668;2023-02-28T13:39:49;5.82;;;3.17;;
45368;SDS011;51342;55.250;37.668;2023-02-28T13:42:54;6.47;;;3.13;;
45368;SDS011;51342;55.250;37.668;2023-02-28T13:45:26;5.73;;;3.37;;
45368;SDS011;51342;55.250;37.668;2023-02-28T13:48:01;6.03;;;3.20;;
45368;SDS011;51342;55.250;37.668;2023-02-28T13:50:35;6.23;;;2.83;;
45368;SDS011;51342;55.250;37.668;2023-02-28T14:06:53;4.00;;;2.80;;
45368;SDS011;51342;55.250;37.668;2023-02-28T14:18:21;5.83;;;2.90;;
45368;SDS011;51342;55.250;37.668;2023-02-28T14:23:52;5.90;;;2.90;;
45368;SDS011;51342;55.250;37.668;2023-02-28T14:26:53;6.57;;;2.97;;
45368;SDS011;51342;55.250;37.668;2023-02-28T14:32:47;4.67;;;2.70;;
45368;SDS011;51342;55.250;37.668;2023-02-28T14:35:40;4.73;;;2.73;;
45368;SDS011;51342;55.250;37.668;2023-02-28T14:38:19;4.50;;;2.70;;
45368;SDS011;51342;55.250;37.668;2023-02-28T14:40:55;5.07;;;3.67;;
45368;SDS011;51342;55.250;37.668;2023-02-28T14:43:29;6.57;;;3.20;;
45368;SDS011;51342;55.250;37.668;2023-02-28T14:46:01;4.47;;;2.70;;
45368;SDS011;51342;55.250;37.668;2023-02-28T14:48:36;6.57;;;3.50;;
45368;SDS011;51342;55.250;37.668;2023-02-28T14:51:09;5.83;;;3.13;;
45368;SDS011;51342;55.250;37.668;2023-02-28T14:53:40;6.20;;;2.80;;
45368;SDS011;51342;55.250;37.668;2023-02-28T14:56:19;4.70;;;2.73;;
45368;SDS011;51342;55.250;37.668;2023-02-28T14:58:54;5.73;;;3.53;;
45368;SDS011;51342;55.250;37.668;2023-02-28T15:01:26;4.23;;;2.80;;
45368;SDS011;51342;55.250;37.668;2023-02-28T15:04:12;4.20;;;2.67;;
45368;SDS011;51342;55.250;37.668;2023-02-28T15:09:45;6.97;;;3.07;;
45368;SDS011;51342;55.250;37.668;2023-02-28T15:12:16;6.30;;;2.83;;
45368;SDS011;51342;55.250;37.668;2023-02-28T15:14:47;4.47;;;2.30;;
45368;SDS011;51342;55.250;37.668;2023-02-28T15:17:21;5.63;;;2.90;;
45368;SDS011;51342;55.250;37.668;2023-02-28T15:19:55;5.13;;;2.83;;
45368;SDS011;51342;55.250;37.668;2023-02-28T15:22:28;5.77;;;2.80;;
45368;SDS011;51342;55.250;37.668;2023-02-28T15:25:10;5.33;;;2.67;;
45368;SDS011;51342;55.250;37.668;2023-02-28T15:27:47;5.00;;;2.93;;
45368;SDS011;51342;55.250;37.668;2023-02-28T15:30:26;5.60;;;2.90;;
45368;SDS011;51342;55.250;37.668;2023-02-28T15:35:51;5.03;;;2.47;;
45368;SDS011;51342;55.250;37.668;2023-02-28T15:38:35;5.10;;;2.70;;
45368;SDS011;51342;55.250;37.668;2023-02-28T15:41:21;5.23;;;2.97;;
45368;SDS011;51342;55.250;37.668;2023-02-28T15:47:04;5.10;;;3.20;;
45368;SDS011;51342;55.250;37.668;2023-02-28T15:49:58;5.40;;;3.20;;
45368;SDS011;51342;55.250;37.668;2023-02-28T15:52:33;5.53;;;3.40;;
45368;SDS011;51342;55.250;37.668;2023-02-28T15:55:17;6.13;;;3.13;;
45368;SDS011;51342;55.250;37.668;2023-02-28T15:57:50;4.68;;;2.70;;
45368;SDS011;51342;55.250;37.668;2023-02-28T16:00:25;6.87;;;3.53;;
45368;SDS011;51342;55.250;37.668;2023-02-28T16:02:58;5.00;;;2.93;;
45368;SDS011;51342;55.250;37.668;2023-02-28T16:05:30;4.73;;;2.80;;
45368;SDS011;51342;55.250;37.668;2023-02-28T16:08:13;5.00;;;2.60;;
45368;SDS011;51342;55.250;37.668;2023-02-28T16:10:46;5.00;;;2.73;;
45368;SDS011;51342;55.250;37.668;2023-02-28T16:13:17;4.53;;;3.13;;
45368;SDS011;51342;55.250;37.668;2023-02-28T16:15:48;5.60;;;2.87;;
45368;SDS011;51342;55.250;37.668;2023-02-28T16:18:22;4.70;;;3.40;;
45368;SDS011;51342;55.250;37.668;2023-02-28T16:20:53;5.43;;;3.30;;
45368;SDS011;51342;55.250;37.668;2023-02-28T16:23:24;5.30;;;3.03;;
45368;SDS011;51342;55.250;37.668;2023-02-28T16:25:56;4.83;;;2.80;;
45368;SDS011;51342;55.250;37.668;2023-02-28T16:28:29;5.90;;;2.83;;
45368;SDS011;51342;55.250;37.668;2023-02-28T16:31:03;4.83;;;3.10;;
45368;SDS011;51342;55.250;37.668;2023-02-28T16:33:37;6.03;;;3.10;;
45368;SDS011;51342;55.250;37.668;2023-02-28T16:36:18;4.90;;;3.00;;
45368;SDS011;51342;55.250;37.668;2023-02-28T16:38:56;4.75;;;2.55;;
45368;SDS011;51342;55.250;37.668;2023-02-28T16:41:28;4.60;;;2.47;;
45368;SDS011;51342;55.250;37.668;2023-02-28T16:43:59;4.40;;;2.60;;
45368;SDS011;51342;55.250;37.668;2023-02-28T16:46:33;5.23;;;2.60;;
45368;SDS011;51342;55.250;37.668;2023-02-28T16:49:09;5.10;;;2.90;;
45368;SDS011;51342;55.250;37.668;2023-02-28T16:51:43;3.65;;;2.33;;
45368;SDS011;51342;55.250;37.668;2023-02-28T16:54:14;4.53;;;2.63;;
45368;SDS011;51342;55.250;37.668;2023-02-28T16:56:46;4.87;;;2.93;;
45368;SDS011;51342;55.250;37.668;2023-02-28T16:59:22;5.13;;;2.47;;
45368;SDS011;51342;55.250;37.668;2023-02-28T17:01:55;6.43;;;3.00;;
45368;SDS011;51342;55.250;37.668;2023-02-28T17:04:30;5.27;;;2.87;;
45368;SDS011;51342;55.250;37.668;2023-02-28T17:07:01;6.30;;;3.37;;
45368;SDS011;51342;55.250;37.668;2023-02-28T17:09:32;5.27;;;3.10;;
45368;SDS011;51342;55.250;37.668;2023-02-28T17:12:04;4.40;;;2.50;;
45368;SDS011;51342;55.250;37.668;2023-02-28T17:14:36;5.23;;;2.90;;
45368;SDS011;51342;55.250;37.668;2023-02-28T17:17:10;4.47;;;2.87;;
45368;SDS011;51342;55.250;37.668;2023-02-28T17:19:48;5.77;;;3.10;;
45368;SDS011;51342;55.250;37.668;2023-02-28T17:22:19;4.67;;;2.90;;
45368;SDS011;51342;55.250;37.668;2023-02-28T17:24:51;5.07;;;3.17;;
45368;SDS011;51342;55.250;37.668;2023-02-28T17:27:26;7.10;;;3.20;;
45368;SDS011;51342;55.250;37.668;2023-02-28T17:29:57;4.23;;;2.77;;
45368;SDS011;51342;55.250;37.668;2023-02-28T17:32:29;6.47;;;2.67;;
45368;SDS011;51342;55.250;37.668;2023-02-28T17:35:00;4.83;;;2.67;;
45368;SDS011;51342;55.250;37.668;2023-02-28T17:37:32;4.07;;;2.50;;
45368;SDS011;51342;55.250;37.668;2023-02-28T17:40:03;4.27;;;2.53;;
45368;SDS011;51342;55.250;37.668;2023-02-28T17:42:35;5.40;;;2.90;;
45368;SDS011;51342;55.250;37.668;2023-02-28T17:45:07;4.73;;;2.77;;
45368;SDS011;51342;55.250;37.668;2023-02-28T17:47:39;4.27;;;2.80;;
45368;SDS011;51342;55.250;37.668;2023-02-28T17:50:14;5.17;;;2.40;;
45368;SDS011;51342;55.250;37.668;2023-02-28T17:52:47;4.77;;;2.40;;
45368;SDS011;51342;55.250;37.668;2023-02-28T17:55:18;4.43;;;2.30;;
45368;SDS011;51342;55.250;37.668;2023-02-28T17:57:50;4.33;;;2.37;;
45368;SDS011;51342;55.250;37.668;2023-02-28T18:00:21;4.97;;;2.43;;
45368;SDS011;51342;55.250;37.668;2023-02-28T18:02:54;4.20;;;2.30;;
45368;SDS011;51342;55.250;37.668;2023-02-28T18:05:26;5.27;;;2.27;;